ADDS METAR Data INFO
IDs: Format: Raw Decoded Include TAF

Data at: 0043 UTC 23 Oct 2017

PAEN 222353Z 27004KT 10SM FEW022 02/M02 A2959 RMK AO2 SLP024 60001 T00171022 10022 21061 51026
PAEN 222253Z 00000KT 10SM SCT028 01/M02 A2957 RMK AO2 SNE32 SLP016 P0001 T00061017
PAEN 222202Z 33006KT 3SM -SN BR FEW019 BKN030 M01/M01 A2955 RMK AO2 P0000 T10111011
PAEN 222200Z 33006KT 1 1/2SM -SN BR FEW019 BKN030 OVC041 M01/M01 A2955 RMK AO2 P0000 T10111011
PAEN 222153Z 34007KT 4SM -SN BR SCT026 BKN035 M01/M01 A2955 RMK AO2 SNB20 SLP009 P0000 T10111011
PAEN 222053Z 00000KT 10SM SCT065 SCT080 BKN090 01/M04 A2952 RMK AO2 SLP997 T00111039 53027
PAEN 221953Z 12004KT 10SM FEW042 BKN050 M01/M06 A2949 RMK AO2 SLP988 T10111056
PAEN 221853Z 10004KT 10SM BKN050 M04/M07 A2946 RMK AO2 SLP980 T10391072
PAEN 221753Z 00000KT 10SM BKN050 BKN060 M06/M07 A2944 RMK AO2 SLP971 I6000 T10611072 11050 21089 53022
PAEN 221653Z 09004KT 10SM FEW070 M07/M08 A2941 RMK AO2 SLP964 T10671078
PAEN 221553Z 09006KT 10SM FEW040 M06/M07 A2939 RMK AO2 SLP956 T10611072
PAEN 221453Z 09004KT 10SM FEW032 OVC044 M05/M06 A2937 RMK AO2 SLP950 I3000 T10501056 53018
PAEN 221353Z AUTO 10007KT 10SM OVC042 M06/M06 A2935 RMK AO2 SLP942 T10561061 TSNO
PAEN 221253Z AUTO 00000KT 10SM BKN037 OVC046 M07/M07 A2934 RMK AO2 SLP937 I1000 T10671072 TSNO
PAEN 221153Z AUTO 08004KT 10SM CLR M09/M09 A2932 RMK AO2 SLP931 60000 I1000 I6000 T10891089 11033 21089 51010 TSNO
PAEN 221053Z AUTO 00000KT 10SM CLR M08/M08 A2931 RMK AO2 SLP928 I1000 T10781083 TSNO
PAEN 220953Z AUTO 00000KT 10SM SCT090 M06/M07 A2930 RMK AO2 SLP925 T10561067 TSNO
PAEN 220853Z 00000KT 10SM OVC090 M04/M06 A2929 RMK AO2 SLP921 60000 T10441056 400001094 53008
PAEN 220753Z 00000KT 10SM OVC090 M04/M05 A2928 RMK AO2 SLP918 T10391050
PAEN 220724Z 13003KT 10SM SCT018 SCT070 OVC090 M04/M05 A2928 RMK AO2 T10391050
PAEN 220653Z 00000KT 10SM OVC019 M03/M05 A2927 RMK AO2 SNB02E19 SLP916 P0000 T10331050
PAEN 220553Z 00000KT 10SM SCT017 BKN022 OVC090 M03/M05 A2927 RMK AO2 SLP913 T10331050 10000 21033 53005
PAEN 220522Z 12003KT 10SM SCT014 BKN055 OVC090 M03/M05 A2926 RMK AO2 T10331050
PAEN 220512Z 13003KT 10SM BKN014 BKN022 OVC050 M03/M05 A2926 RMK AO2 T10331050
PAEN 220453Z 10003KT 10SM OVC015 M03/M05 A2926 RMK AO2 SLP911 T10331050
PAEN 220353Z 08004KT 10SM BKN022 OVC043 M03/M05 A2925 RMK AO2 SLP909 T10331050
PAEN 220253Z 05006KT 10SM FEW018 SCT025 OVC042 M03/M06 A2925 RMK AO2 SLP908 T10281056 55000
PAEN 220155Z 06006KT 10SM SCT022 BKN040 M03/M06 A2925 RMK AO2 T10281056
PAEN 220153Z 05006KT 10SM SCT022 BKN040 M03/M06 A2925 RMK AO2 SLP907 T10281056
PAEN 220053Z 04012KT 10SM OVC055 M02/M07 A2924 RMK AO2 SLP906 T10171067
PAEN 212353Z 02005KT 10SM SCT050 00/M08 A2925 RMK AO2 SLP908 T00001078 10000 21039 58006
PAEN 212253Z 04009KT 10SM BKN050 M01/M09 A2926 RMK AO2 SLP911 T10061089
PAEN 212153Z 05010KT 10SM SCT050 M01/M08 A2927 RMK AO2 SLP913 T10111083
PAEN 212053Z 06010KT 10SM SCT050 M01/M08 A2927 RMK AO2 SLP914 T10111083 58005
PAEN 211953Z 05006KT 10SM OVC050 M02/M08 A2928 RMK AO2 SLP917 T10171078
PAEN 211853Z 09004KT 10SM BKN050 OVC085 M03/M07 A2928 RMK AO2 SLP919 T10331067
PAEN 211753Z 00000KT 10SM OVC049 M04/M07 A2928 RMK AO2 SLP919 60000 T10391067 11039 21056 58001
PAEN 211653Z 08003KT 10SM FEW028 OVC048 M04/M06 A2928 RMK AO2 SNB27E43 SLP920 P0000 T10441056
PAEN 211648Z 08003KT 9SM SCT030 OVC050 M04/M06 A2929 RMK AO2 SNB27E43 P0000
PAEN 211617Z 07004KT 10SM BKN026 OVC055 M04/M06 A2929 RMK AO2 T10441056
PAEN 211553Z 06004KT 10SM BKN055 OVC085 M04/M06 A2929 RMK AO2 SLP920 T10441061
PAEN 211453Z 04004KT 10SM OVC060 M04/M06 A2929 RMK AO2 SLP921 T10441056 56009
PAEN 211353Z AUTO 02005KT 10SM OVC085 M05/M06 A2929 RMK AO2 SLP923 T10501061 TSNO
PAEN 211253Z AUTO 05005KT 10SM BKN070 OVC085 M06/M07 A2931 RMK AO2 SLP927 T10561072 TSNO